createdAt,value
2023-02-11T00:02:57.792Z,40.88
2023-02-11T00:06:59.377Z,39.22
2023-02-11T00:11:01.445Z,41.60
2023-02-11T00:15:04.141Z,36.60
2023-02-11T00:19:06.722Z,41.95
2023-02-11T00:23:09.003Z,41.90
2023-02-11T00:27:10.550Z,40.15
2023-02-11T00:31:13.480Z,38.90
2023-02-11T00:35:15.410Z,45.60
2023-02-11T00:39:17.020Z,28.67
2023-02-11T00:43:18.572Z,40.17
2023-02-11T00:47:20.332Z,44.40
2023-02-11T00:51:22.012Z,41.92
2023-02-11T00:55:23.560Z,37.60
2023-02-11T00:59:25.159Z,39.75
2023-02-11T01:03:26.893Z,42.58
2023-02-11T01:07:36.703Z,43.70
2023-02-11T01:11:38.357Z,36.97
2023-02-11T01:15:39.952Z,36.47
2023-02-11T01:19:41.657Z,42.67
2023-02-11T01:23:43.188Z,40.78
2023-02-11T01:27:46.598Z,42.03
2023-02-11T01:31:48.334Z,42.75
2023-02-11T01:35:50.439Z,32.65
2023-02-11T01:39:52.229Z,31.73
2023-02-11T01:43:53.781Z,36.67
2023-02-11T01:47:55.308Z,35.35
2023-02-11T01:52:26.409Z,35.20
2023-02-11T01:56:47.854Z,34.70
2023-02-11T02:00:50.433Z,36.38
2023-02-11T02:05:15.133Z,31.93
2023-02-11T02:09:28.089Z,32.72
2023-02-11T02:13:32.526Z,30.23
2023-02-11T02:17:47.515Z,32.67
2023-02-11T02:22:34.872Z,36.22
2023-02-11T02:27:10.604Z,33.78
2023-02-11T02:31:59.096Z,37.33
2023-02-11T02:36:18.244Z,31.10
2023-02-11T02:40:35.198Z,29.25
2023-02-11T02:44:36.791Z,30.52
2023-02-11T02:48:38.716Z,31.80
2023-02-11T02:52:43.035Z,28.00
2023-02-11T02:57:18.897Z,36.47
2023-02-11T03:01:57.868Z,33.70
2023-02-11T03:06:19.480Z,30.38
2023-02-11T03:10:30.020Z,32.10
2023-02-11T03:14:33.034Z,31.40
2023-02-11T03:18:36.888Z,30.38
2023-02-11T03:22:46.386Z,29.33
2023-02-11T03:26:53.944Z,37.47
2023-02-11T03:31:07.634Z,25.60
2023-02-11T03:35:20.194Z,28.05
2023-02-11T03:39:27.451Z,31.17
2023-02-11T03:43:35.283Z,33.70
2023-02-11T03:47:39.887Z,28.60
2023-02-11T03:51:41.877Z,28.27
2023-02-11T03:55:44.604Z,30.30
2023-02-11T03:59:58.615Z,34.08
2023-02-11T04:04:00.166Z,27.35
2023-02-11T04:08:01.862Z,28.50
2023-02-11T04:12:03.596Z,36.05
2023-02-11T04:16:05.394Z,34.63
2023-02-11T04:20:07.654Z,30.98
2023-02-11T04:24:09.208Z,36.03
2023-02-11T04:28:10.812Z,29.05
2023-02-11T04:32:12.476Z,33.95
2023-02-11T04:36:14.067Z,29.08
2023-02-11T04:40:15.707Z,28.98
2023-02-11T04:44:17.315Z,31.42
2023-02-11T04:48:18.850Z,30.25
2023-02-11T04:52:20.470Z,30.17
2023-02-11T04:56:22.027Z,35.30
2023-02-11T05:00:23.565Z,29.13
2023-02-11T05:04:25.154Z,30.55
2023-02-11T05:08:26.761Z,33.17
2023-02-11T05:12:28.435Z,30.33
2023-02-11T05:16:30.011Z,36.20
2023-02-11T05:20:31.632Z,31.33
2023-02-11T05:24:33.563Z,29.00
2023-02-11T05:28:35.689Z,30.63
2023-02-11T05:32:37.288Z,24.55
2023-02-11T05:36:38.903Z,30.58
2023-02-11T05:40:40.985Z,26.88
2023-02-11T05:44:42.525Z,27.27
2023-02-11T05:48:44.163Z,27.40
2023-02-11T05:52:45.740Z,32.15
2023-02-11T05:56:47.536Z,28.40
2023-02-11T06:00:49.106Z,29.98
2023-02-11T06:04:50.670Z,31.25
2023-02-11T06:08:52.273Z,30.30
2023-02-11T06:12:53.877Z,28.92
2023-02-11T06:16:55.494Z,32.30
2023-02-11T06:20:57.125Z,27.02
2023-02-11T06:25:01.649Z,27.55
2023-02-11T06:29:04.859Z,27.40
2023-02-11T06:33:06.426Z,32.28
2023-02-11T06:37:07.969Z,31.58
2023-02-11T06:41:11.567Z,30.63
2023-02-11T06:45:13.505Z,30.65
2023-02-11T06:49:15.759Z,34.30
2023-02-11T06:53:17.756Z,28.38
2023-02-11T06:57:20.113Z,32.22
2023-02-11T07:01:22.647Z,32.92
2023-02-11T07:05:24.254Z,27.75
2023-02-11T07:09:25.869Z,33.22
2023-02-11T07:13:27.564Z,30.48
2023-02-11T07:17:29.136Z,28.35
2023-02-11T07:21:31.879Z,31.85
2023-02-11T07:25:33.907Z,34.83
2023-02-11T07:29:35.509Z,30.07
2023-02-11T07:33:38.004Z,30.77
2023-02-11T07:37:39.578Z,30.30
2023-02-11T07:41:41.309Z,29.10
2023-02-11T07:45:42.921Z,28.08
2023-02-11T07:49:45.478Z,31.30
2023-02-11T07:53:48.575Z,33.58
2023-02-11T07:57:50.857Z,29.38
2023-02-11T08:01:52.498Z,28.60
2023-02-11T08:05:54.165Z,31.10
2023-02-11T08:09:55.861Z,30.77
2023-02-11T08:13:57.456Z,31.02
2023-02-11T08:17:59.112Z,33.65
2023-02-11T08:22:01.489Z,31.08
2023-02-11T08:26:05.168Z,32.88
2023-02-11T08:30:07.310Z,29.75
2023-02-11T08:34:11.535Z,32.80
2023-02-11T08:38:13.252Z,33.65
2023-02-11T08:42:18.961Z,35.72
2023-02-11T08:46:20.769Z,32.85
2023-02-11T08:50:22.399Z,29.83
2023-02-11T08:54:24.209Z,35.25
2023-02-11T08:58:26.942Z,33.67
2023-02-11T09:02:28.702Z,32.42
2023-02-11T09:06:30.611Z,36.85
2023-02-11T09:10:32.444Z,28.13
2023-02-11T09:14:34.097Z,34.45
2023-02-11T09:18:35.728Z,33.63
2023-02-11T09:22:37.302Z,32.10
2023-02-11T09:26:43.521Z,37.00
2023-02-11T09:30:45.278Z,32.22
2023-02-11T09:34:47.007Z,36.45
2023-02-11T09:38:49.334Z,34.33
2023-02-11T09:43:01.766Z,33.53
2023-02-11T09:47:15.790Z,36.45
2023-02-11T09:51:26.626Z,35.42
2023-02-11T09:55:39.500Z,35.42
2023-02-11T09:59:41.126Z,35.42
2023-02-11T10:03:54.250Z,33.70
2023-02-11T10:08:10.022Z,33.42
2023-02-11T10:12:32.852Z,35.05
2023-02-11T10:16:42.314Z,32.42
2023-02-11T10:21:03.875Z,31.10
2023-02-11T10:25:46.537Z,33.00
2023-02-11T10:30:03.652Z,32.20
2023-02-11T10:34:11.958Z,35.95
2023-02-11T10:38:13.623Z,35.83
2023-02-11T10:42:15.865Z,34.15
2023-02-11T10:46:22.258Z,36.30
2023-02-11T10:50:35.526Z,36.33
2023-02-11T10:54:37.077Z,36.80
2023-02-11T10:58:45.985Z,35.63
2023-02-11T11:02:55.766Z,35.38
2023-02-11T11:07:09.877Z,33.90
2023-02-11T11:11:17.000Z,34.35
2023-02-11T11:15:24.712Z,31.45
2023-02-11T11:19:26.287Z,35.78
2023-02-11T11:23:30.299Z,37.95
2023-02-11T11:27:32.513Z,40.03
2023-02-11T11:31:45.522Z,35.47
2023-02-11T11:40:08.305Z,32.17
2023-02-11T11:44:33.962Z,33.72
2023-02-11T11:48:39.375Z,31.15
2023-02-11T11:52:55.151Z,37.35
2023-02-11T11:57:03.334Z,37.28
2023-02-11T12:01:26.363Z,35.45
2023-02-11T12:05:42.501Z,33.22
2023-02-11T12:10:08.491Z,37.85
2023-02-11T12:14:12.812Z,31.33
2023-02-11T12:18:38.735Z,36.90
2023-02-11T12:22:46.413Z,34.35
2023-02-11T12:26:56.858Z,33.20
2023-02-11T12:31:01.468Z,38.90
2023-02-11T12:35:28.576Z,34.03
2023-02-11T12:39:54.468Z,35.80
2023-02-11T12:43:56.178Z,34.42
2023-02-11T12:48:30.777Z,33.72
2023-02-11T12:52:41.199Z,34.60
2023-02-11T12:57:03.545Z,35.90
2023-02-11T13:01:10.788Z,32.57
2023-02-11T13:05:29.629Z,32.85
2023-02-11T13:09:55.381Z,32.88
2023-02-11T13:14:21.936Z,32.38
2023-02-11T13:19:05.032Z,33.72
2023-02-11T13:23:09.459Z,28.60
2023-02-11T13:27:21.126Z,30.17
2023-02-11T13:31:26.960Z,28.70
2023-02-11T13:35:37.083Z,30.38
2023-02-11T13:39:39.438Z,35.08
2023-02-11T13:43:41.187Z,29.65
2023-02-11T13:47:42.998Z,36.65
2023-02-11T13:51:45.300Z,33.90
2023-02-11T13:55:49.153Z,30.00
2023-02-11T13:59:52.392Z,26.67
2023-02-11T14:04:46.872Z,29.02
2023-02-11T14:08:59.545Z,25.98
2023-02-11T14:13:23.225Z,27.83
2023-02-11T14:17:33.116Z,30.27
2023-02-11T14:21:38.112Z,29.63
2023-02-11T14:25:42.993Z,25.05
2023-02-11T14:30:00.423Z,24.85
2023-02-11T14:34:17.424Z,27.48
2023-02-11T14:38:43.265Z,25.70
2023-02-11T14:42:45.421Z,27.55
2023-02-11T14:46:49.948Z,21.80
2023-02-11T14:50:54.739Z,26.13
2023-02-11T14:55:13.579Z,21.98
2023-02-11T14:59:21.375Z,23.75
2023-02-11T15:03:30.630Z,27.15
2023-02-11T15:07:32.420Z,25.80
2023-02-11T15:11:39.870Z,29.25
2023-02-11T15:15:41.745Z,33.35
2023-02-11T15:19:50.201Z,32.10
2023-02-11T15:24:00.417Z,29.38
2023-02-11T15:28:10.614Z,30.27
2023-02-11T15:32:18.126Z,30.10
2023-02-11T15:36:27.911Z,35.00
2023-02-11T15:40:34.528Z,34.78
2023-02-11T15:44:38.176Z,29.52
2023-02-11T15:48:47.231Z,28.70
2023-02-11T15:52:50.045Z,32.10
2023-02-11T16:00:59.750Z,30.50
2023-02-11T16:05:05.348Z,31.08
2023-02-11T16:09:12.793Z,31.45
2023-02-11T16:13:14.325Z,28.60
2023-02-11T16:17:18.581Z,30.13
2023-02-11T16:21:22.151Z,29.13
2023-02-11T16:25:24.133Z,25.33
2023-02-11T16:29:32.170Z,31.33
2023-02-11T16:33:33.746Z,30.77
2023-02-11T16:37:38.143Z,29.98
2023-02-11T16:41:40.548Z,33.20
2023-02-11T16:45:42.196Z,35.08
2023-02-11T16:49:43.913Z,30.77
2023-02-11T16:53:45.602Z,32.08
2023-02-11T16:57:47.155Z,32.67
2023-02-11T17:01:51.422Z,34.53
2023-02-11T17:05:55.928Z,32.40
2023-02-11T17:09:57.857Z,31.90
2023-02-11T17:13:59.425Z,31.20
2023-02-11T17:18:01.055Z,31.30
2023-02-11T17:22:03.466Z,31.27
2023-02-11T17:26:06.394Z,38.00
2023-02-11T17:30:09.390Z,32.70
2023-02-11T17:34:11.785Z,30.52
2023-02-11T17:38:13.383Z,32.13
2023-02-11T17:42:14.956Z,32.22
2023-02-11T17:46:16.952Z,32.63
2023-02-11T17:50:18.802Z,29.23
2023-02-11T17:54:21.035Z,35.50
2023-02-11T17:58:23.501Z,30.98
2023-02-11T18:02:25.178Z,29.52
2023-02-11T18:06:26.896Z,33.58
2023-02-11T18:10:28.602Z,27.83
2023-02-11T18:14:30.135Z,30.63
2023-02-11T18:18:31.919Z,33.13
2023-02-11T18:22:39.153Z,32.53
2023-02-11T18:26:41.719Z,35.70
2023-02-11T18:30:43.411Z,34.15
2023-02-11T18:34:45.061Z,31.02
2023-02-11T18:38:46.823Z,32.28
2023-02-11T18:42:48.463Z,33.10
2023-02-11T18:46:50.488Z,34.92
2023-02-11T18:50:52.118Z,31.80
2023-02-11T18:54:53.642Z,27.15
2023-02-11T18:58:56.672Z,28.25
2023-02-11T19:02:58.853Z,24.92
2023-02-11T19:07:03.202Z,28.52
2023-02-11T19:11:05.238Z,27.02
2023-02-11T19:15:08.485Z,34.30
2023-02-11T19:19:10.291Z,30.90
2023-02-11T19:23:11.993Z,29.95
2023-02-11T19:27:13.543Z,26.13
2023-02-11T19:31:15.222Z,33.88
2023-02-11T19:35:16.937Z,30.15
2023-02-11T19:39:18.650Z,26.67
2023-02-11T19:43:20.222Z,25.35
2023-02-11T19:47:27.666Z,30.27
2023-02-11T19:51:30.075Z,24.85
2023-02-11T19:55:34.833Z,27.38
2023-02-11T19:59:36.850Z,25.75
2023-02-11T20:03:42.140Z,26.50
2023-02-11T20:07:44.254Z,30.67
2023-02-11T20:11:45.966Z,26.23
2023-02-11T20:15:47.691Z,27.60
2023-02-11T20:19:49.399Z,27.05
2023-02-11T20:23:52.219Z,24.90
2023-02-11T20:31:56.227Z,28.30
2023-02-11T20:36:00.690Z,24.73
2023-02-11T20:40:02.282Z,31.13
2023-02-11T20:44:07.281Z,24.85
2023-02-11T20:48:08.866Z,25.30
2023-02-11T20:52:10.555Z,26.58
2023-02-11T20:56:12.439Z,24.10
2023-02-11T21:00:14.379Z,27.33
2023-02-11T21:04:18.977Z,24.20
2023-02-11T21:08:20.577Z,29.65
2023-02-11T21:12:22.432Z,24.02
2023-02-11T21:16:24.308Z,26.10
2023-02-11T21:20:25.962Z,25.90
2023-02-11T21:24:27.909Z,29.35
2023-02-11T21:28:29.704Z,26.70
2023-02-11T21:32:31.310Z,30.00
2023-02-11T21:36:33.532Z,27.15
2023-02-11T21:40:35.147Z,28.73
2023-02-11T21:44:36.791Z,28.35
2023-02-11T21:48:38.578Z,27.85
2023-02-11T21:52:40.138Z,37.85
2023-02-11T21:56:41.782Z,29.10
2023-02-11T22:00:43.451Z,29.02
2023-02-11T22:04:45.169Z,28.92
2023-02-11T22:08:48.483Z,26.40
2023-02-11T22:12:52.446Z,26.00
2023-02-11T22:16:54.081Z,25.42
2023-02-11T22:21:16.893Z,28.52
2023-02-11T22:25:18.661Z,25.77
2023-02-11T22:29:20.217Z,26.02
2023-02-11T22:33:24.078Z,25.80
2023-02-11T22:37:25.653Z,31.02
2023-02-11T22:41:27.314Z,30.30
2023-02-11T22:45:28.979Z,26.08
2023-02-11T22:49:32.538Z,24.27
2023-02-11T22:53:34.907Z,26.95
2023-02-11T22:57:36.458Z,24.35
2023-02-11T23:01:38.070Z,27.77
2023-02-11T23:05:42.710Z,28.80
2023-02-11T23:09:44.499Z,28.83
2023-02-11T23:13:47.594Z,28.67
2023-02-11T23:17:49.165Z,30.42
2023-02-11T23:21:52.186Z,26.02
2023-02-11T23:25:53.930Z,25.23
2023-02-11T23:29:56.709Z,25.83
2023-02-11T23:33:58.267Z,23.92
2023-02-11T23:37:59.840Z,30.02
2023-02-11T23:42:01.613Z,26.55
2023-02-11T23:46:03.623Z,29.38
2023-02-11T23:50:07.307Z,26.43
2023-02-11T23:54:14.584Z,25.15
2023-02-11T23:58:16.276Z,24.77
